Portada
METAR-TAF:

METAR-TAF

Aeropuertos :

Aeropuerto de Kangerlussuaq

Kangerlussuaq, Groenlandia

latitud: 67-01N, longitud: 050-42W, altitud: 50 m

Observación

El informe se hizo hace 1 hora y 11 minutos, a las 14:50 UTC
Viento 1 kt con dirección variable
Temperatura -14°C
Humedad 46%
Presión 1009 hPa
Visibilidad 10 km o más

METAR: BGSF 041450Z AUTO VRB01KT 9999NDV NCD M14/M23 Q1009

Hora: 13:01 (16:01 UTC)

Pronóstico

El informe se hizo hace 5 horas y 5 minutos, a las 10:56 UTC
Pronóstico válido del 04 a las 12 UTC al 05 a las 01 UTC
Viento 8 kt del noreste
Visibilidad 10 km o más
Escasas nubes a una altura de 15000 ft

TAF: BGSF 041056Z 0412/0501 04008KT 9999 FEW150

Observaciones y pronósticos meteorológicos de más de 4000 aeropuertos (mensajes METAR y TAF).

Los puntos amarillos y rojos representan las estaciones disponibles.

Ponga el ratón en el punto deseado para ver el nombre de la estación.

Haga clic para ver las observaciones y los pronósticos meteorológicos.

Para cambiar el mapa : haga clic en los botones verdes con una cruz de color negro para hacer un zoom, en el botón verde con un guión para alejar o en las flechas verdes para mapas adyacentes.


METAR-TAF: